sensor_id;sensor_type;location;lat;lon;timestamp;P1;durP1;ratioP1;P2;durP2;ratioP2
6199;SDS011;3133;43.214;27.906;2023-04-09T00:01:11;25.40;;;15.37;;
6199;SDS011;3133;43.214;27.906;2023-04-09T00:03:39;23.07;;;16.07;;
6199;SDS011;3133;43.214;27.906;2023-04-09T00:11:14;27.23;;;18.47;;
6199;SDS011;3133;43.214;27.906;2023-04-09T00:20:12;24.77;;;18.20;;
6199;SDS011;3133;43.214;27.906;2023-04-09T00:26:01;35.17;;;20.33;;
6199;SDS011;3133;43.214;27.906;2023-04-09T00:28:30;30.80;;;19.50;;
6199;SDS011;3133;43.214;27.906;2023-04-09T00:34:19;30.13;;;20.47;;
6199;SDS011;3133;43.214;27.906;2023-04-09T00:40:07;25.77;;;17.67;;
6199;SDS011;3133;43.214;27.906;2023-04-09T00:42:40;25.60;;;17.03;;
6199;SDS011;3133;43.214;27.906;2023-04-09T00:48:29;32.40;;;20.37;;
6199;SDS011;3133;43.214;27.906;2023-04-09T00:54:18;42.10;;;30.00;;
6199;SDS011;3133;43.214;27.906;2023-04-09T01:00:07;44.57;;;31.83;;
6199;SDS011;3133;43.214;27.906;2023-04-09T01:02:40;50.37;;;28.23;;
6199;SDS011;3133;43.214;27.906;2023-04-09T01:08:32;30.03;;;19.07;;
6199;SDS011;3133;43.214;27.906;2023-04-09T01:11:08;22.30;;;16.80;;
6199;SDS011;3133;43.214;27.906;2023-04-09T01:17:09;23.73;;;13.27;;
6199;SDS011;3133;43.214;27.906;2023-04-09T01:19:43;17.30;;;13.07;;
6199;SDS011;3133;43.214;27.906;2023-04-09T01:25:43;18.53;;;12.50;;
6199;SDS011;3133;43.214;27.906;2023-04-09T01:28:19;20.27;;;12.00;;
6199;SDS011;3133;43.214;27.906;2023-04-09T01:34:10;16.87;;;12.00;;
6199;SDS011;3133;43.214;27.906;2023-04-09T01:36:40;19.47;;;12.27;;
6199;SDS011;3133;43.214;27.906;2023-04-09T01:42:31;30.37;;;12.67;;
6199;SDS011;3133;43.214;27.906;2023-04-09T01:45:06;31.63;;;12.73;;
6199;SDS011;3133;43.214;27.906;2023-04-09T01:50:55;15.23;;;10.90;;
6199;SDS011;3133;43.214;27.906;2023-04-09T01:56:43;15.63;;;10.63;;
6199;SDS011;3133;43.214;27.906;2023-04-09T01:59:18;17.00;;;11.70;;
6199;SDS011;3133;43.214;27.906;2023-04-09T02:05:08;18.70;;;11.40;;
6199;SDS011;3133;43.214;27.906;2023-04-09T02:07:39;17.07;;;12.03;;
6199;SDS011;3133;43.214;27.906;2023-04-09T02:13:32;18.63;;;11.60;;
6199;SDS011;3133;43.214;27.906;2023-04-09T02:19:23;18.00;;;11.63;;
6199;SDS011;3133;43.214;27.906;2023-04-09T02:21:52;16.20;;;11.70;;
6199;SDS011;3133;43.214;27.906;2023-04-09T02:27:41;23.10;;;11.80;;
6199;SDS011;3133;43.214;27.906;2023-04-09T02:33:29;17.90;;;12.40;;
6199;SDS011;3133;43.214;27.906;2023-04-09T02:35:56;14.17;;;11.00;;
6199;SDS011;3133;43.214;27.906;2023-04-09T02:41:46;18.83;;;11.63;;
6199;SDS011;3133;43.214;27.906;2023-04-09T02:44:13;17.97;;;12.43;;
6199;SDS011;3133;43.214;27.906;2023-04-09T02:50:01;15.37;;;11.07;;
6199;SDS011;3133;43.214;27.906;2023-04-09T02:52:34;22.37;;;11.77;;
6199;SDS011;3133;43.214;27.906;2023-04-09T02:58:24;25.43;;;14.87;;
6199;SDS011;3133;43.214;27.906;2023-04-09T03:00:52;21.20;;;14.20;;
6199;SDS011;3133;43.214;27.906;2023-04-09T03:13:20;17.33;;;11.33;;
6199;SDS011;3133;43.214;27.906;2023-04-09T03:15:55;15.10;;;10.77;;
6199;SDS011;3133;43.214;27.906;2023-04-09T03:28:12;16.50;;;11.63;;
6199;SDS011;3133;43.214;27.906;2023-04-09T03:34:02;18.60;;;11.43;;
6199;SDS011;3133;43.214;27.906;2023-04-09T03:39:50;21.87;;;11.63;;
6199;SDS011;3133;43.214;27.906;2023-04-09T03:42:26;17.40;;;12.37;;
6199;SDS011;3133;43.214;27.906;2023-04-09T03:48:14;27.57;;;12.27;;
6199;SDS011;3133;43.214;27.906;2023-04-09T03:56:33;15.97;;;11.30;;
6199;SDS011;3133;43.214;27.906;2023-04-09T03:59:01;19.20;;;11.90;;
6199;SDS011;3133;43.214;27.906;2023-04-09T04:04:50;29.80;;;13.00;;
6199;SDS011;3133;43.214;27.906;2023-04-09T04:07:18;18.40;;;12.30;;
6199;SDS011;3133;43.214;27.906;2023-04-09T04:09:50;17.13;;;11.37;;
6199;SDS011;3133;43.214;27.906;2023-04-09T04:18:51;19.97;;;12.43;;
6199;SDS011;3133;43.214;27.906;2023-04-09T04:21:18;13.30;;;8.43;;
6199;SDS011;3133;43.214;27.906;2023-04-09T04:27:08;10.40;;;6.63;;
6199;SDS011;3133;43.214;27.906;2023-04-09T04:29:35;10.07;;;6.10;;
6199;SDS011;3133;43.214;27.906;2023-04-09T04:35:24;5.40;;;4.40;;
6199;SDS011;3133;43.214;27.906;2023-04-09T04:41:12;9.37;;;6.13;;
6199;SDS011;3133;43.214;27.906;2023-04-09T04:43:41;8.80;;;5.50;;
6199;SDS011;3133;43.214;27.906;2023-04-09T04:49:29;5.40;;;4.70;;
6199;SDS011;3133;43.214;27.906;2023-04-09T04:51:59;7.63;;;5.37;;
6199;SDS011;3133;43.214;27.906;2023-04-09T04:57:49;7.37;;;5.70;;
6199;SDS011;3133;43.214;27.906;2023-04-09T05:13:51;6.83;;;5.27;;
6199;SDS011;3133;43.214;27.906;2023-04-09T05:16:19;12.53;;;9.20;;
6199;SDS011;3133;43.214;27.906;2023-04-09T05:42:53;17.63;;;9.87;;
6199;SDS011;3133;43.214;27.906;2023-04-09T05:48:35;15.20;;;11.50;;
6199;SDS011;3133;43.214;27.906;2023-04-09T05:51:14;16.03;;;10.80;;
6199;SDS011;3133;43.214;27.906;2023-04-09T05:57:02;20.67;;;10.80;;
6199;SDS011;3133;43.214;27.906;2023-04-09T05:59:36;15.17;;;9.77;;
6199;SDS011;3133;43.214;27.906;2023-04-09T06:05:26;12.93;;;9.50;;
6199;SDS011;3133;43.214;27.906;2023-04-09T06:07:53;11.00;;;8.67;;
6199;SDS011;3133;43.214;27.906;2023-04-09T06:13:41;14.73;;;8.33;;
6199;SDS011;3133;43.214;27.906;2023-04-09T06:19:30;12.03;;;7.60;;
6199;SDS011;3133;43.214;27.906;2023-04-09T06:25:20;9.20;;;6.07;;
6199;SDS011;3133;43.214;27.906;2023-04-09T06:31:09;8.17;;;6.17;;
6199;SDS011;3133;43.214;27.906;2023-04-09T06:36:58;7.33;;;6.30;;
6199;SDS011;3133;43.214;27.906;2023-04-09T06:42:47;7.47;;;6.07;;
6199;SDS011;3133;43.214;27.906;2023-04-09T06:48:36;9.27;;;6.93;;
6199;SDS011;3133;43.214;27.906;2023-04-09T06:51:15;10.57;;;7.37;;
6199;SDS011;3133;43.214;27.906;2023-04-09T07:00:26;5.73;;;5.20;;
6199;SDS011;3133;43.214;27.906;2023-04-09T07:06:14;6.40;;;5.80;;
6199;SDS011;3133;43.214;27.906;2023-04-09T07:08:41;6.07;;;5.47;;
6199;SDS011;3133;43.214;27.906;2023-04-09T07:14:30;8.07;;;5.77;;
6199;SDS011;3133;43.214;27.906;2023-04-09T07:16:58;7.53;;;5.93;;
6199;SDS011;3133;43.214;27.906;2023-04-09T07:22:46;7.50;;;5.60;;
6199;SDS011;3133;43.214;27.906;2023-04-09T07:25:18;6.83;;;5.80;;
6199;SDS011;3133;43.214;27.906;2023-04-09T07:31:07;6.87;;;5.83;;
6199;SDS011;3133;43.214;27.906;2023-04-09T07:33:36;5.87;;;5.27;;
6199;SDS011;3133;43.214;27.906;2023-04-09T07:39:25;6.10;;;5.50;;
6199;SDS011;3133;43.214;27.906;2023-04-09T07:51:13;13.93;;;6.27;;
6199;SDS011;3133;43.214;27.906;2023-04-09T07:53:41;10.60;;;7.00;;
6199;SDS011;3133;43.214;27.906;2023-04-09T08:02:37;8.30;;;7.07;;
6199;SDS011;3133;43.214;27.906;2023-04-09T08:08:21;6.97;;;5.77;;
6199;SDS011;3133;43.214;27.906;2023-04-09T08:10:48;11.17;;;6.10;;
6199;SDS011;3133;43.214;27.906;2023-04-09T08:16:37;20.73;;;5.90;;
6199;SDS011;3133;43.214;27.906;2023-04-09T08:22:26;7.83;;;5.27;;
6199;SDS011;3133;43.214;27.906;2023-04-09T08:28:16;6.03;;;5.40;;
6199;SDS011;3133;43.214;27.906;2023-04-09T08:37:26;7.60;;;5.57;;
6199;SDS011;3133;43.214;27.906;2023-04-09T08:40:06;6.83;;;5.30;;
6199;SDS011;3133;43.214;27.906;2023-04-09T08:45:57;6.90;;;5.50;;
6199;SDS011;3133;43.214;27.906;2023-04-09T08:51:47;6.20;;;5.37;;
6199;SDS011;3133;43.214;27.906;2023-04-09T09:00:06;6.03;;;5.43;;
6199;SDS011;3133;43.214;27.906;2023-04-09T09:03:00;6.53;;;5.30;;
6199;SDS011;3133;43.214;27.906;2023-04-09T09:08:35;8.80;;;6.37;;
6199;SDS011;3133;43.214;27.906;2023-04-09T09:11:02;5.97;;;5.20;;
6199;SDS011;3133;43.214;27.906;2023-04-09T09:13:44;16.00;;;6.30;;
6199;SDS011;3133;43.214;27.906;2023-04-09T09:19:45;10.10;;;6.03;;
6199;SDS011;3133;43.214;27.906;2023-04-09T09:25:36;8.97;;;5.47;;
6199;SDS011;3133;43.214;27.906;2023-04-09T09:31:25;8.73;;;6.10;;
6199;SDS011;3133;43.214;27.906;2023-04-09T09:33:52;5.60;;;5.07;;
6199;SDS011;3133;43.214;27.906;2023-04-09T09:39:42;21.83;;;6.90;;
6199;SDS011;3133;43.214;27.906;2023-04-09T09:42:14;7.33;;;6.37;;
6199;SDS011;3133;43.214;27.906;2023-04-09T09:48:04;13.90;;;5.70;;
6199;SDS011;3133;43.214;27.906;2023-04-09T09:53:53;9.80;;;6.43;;
6199;SDS011;3133;43.214;27.906;2023-04-09T09:56:29;7.87;;;6.03;;
6199;SDS011;3133;43.214;27.906;2023-04-09T10:02:21;10.17;;;6.20;;
6199;SDS011;3133;43.214;27.906;2023-04-09T10:04:55;11.80;;;6.40;;
6199;SDS011;3133;43.214;27.906;2023-04-09T10:07:31;10.53;;;6.50;;
6199;SDS011;3133;43.214;27.906;2023-04-09T10:09:58;12.77;;;6.27;;
6199;SDS011;3133;43.214;27.906;2023-04-09T10:12:29;9.87;;;6.50;;
6199;SDS011;3133;43.214;27.906;2023-04-09T10:14:56;9.03;;;6.87;;
6199;SDS011;3133;43.214;27.906;2023-04-09T10:17:28;16.73;;;6.20;;
6199;SDS011;3133;43.214;27.906;2023-04-09T10:19:55;7.17;;;6.00;;
6199;SDS011;3133;43.214;27.906;2023-04-09T10:22:28;11.03;;;6.50;;
6199;SDS011;3133;43.214;27.906;2023-04-09T10:25:00;7.77;;;5.77;;
6199;SDS011;3133;43.214;27.906;2023-04-09T10:27:30;6.97;;;5.50;;
6199;SDS011;3133;43.214;27.906;2023-04-09T10:29:57;6.37;;;5.40;;
6199;SDS011;3133;43.214;27.906;2023-04-09T10:32:25;6.10;;;5.50;;
6199;SDS011;3133;43.214;27.906;2023-04-09T10:34:55;6.20;;;5.60;;
6199;SDS011;3133;43.214;27.906;2023-04-09T10:37:23;7.77;;;5.97;;
6199;SDS011;3133;43.214;27.906;2023-04-09T10:39:52;7.70;;;6.17;;
6199;SDS011;3133;43.214;27.906;2023-04-09T10:42:21;11.47;;;6.60;;
6199;SDS011;3133;43.214;27.906;2023-04-09T10:47:36;7.27;;;5.80;;
6199;SDS011;3133;43.214;27.906;2023-04-09T10:50:14;8.23;;;6.13;;
6199;SDS011;3133;43.214;27.906;2023-04-09T10:52:42;8.63;;;6.53;;
6199;SDS011;3133;43.214;27.906;2023-04-09T10:55:19;12.77;;;6.27;;
6199;SDS011;3133;43.214;27.906;2023-04-09T10:57:56;6.60;;;5.90;;
6199;SDS011;3133;43.214;27.906;2023-04-09T11:00:24;10.20;;;6.07;;
6199;SDS011;3133;43.214;27.906;2023-04-09T11:05:49;15.10;;;7.20;;
6199;SDS011;3133;43.214;27.906;2023-04-09T11:08:19;14.00;;;6.53;;
6199;SDS011;3133;43.214;27.906;2023-04-09T11:10:49;13.27;;;7.10;;
6199;SDS011;3133;43.214;27.906;2023-04-09T11:13:20;17.50;;;7.77;;
6199;SDS011;3133;43.214;27.906;2023-04-09T11:15:49;8.43;;;6.67;;
6199;SDS011;3133;43.214;27.906;2023-04-09T11:18:19;10.30;;;6.93;;
6199;SDS011;3133;43.214;27.906;2023-04-09T11:20:59;20.57;;;8.13;;
6199;SDS011;3133;43.214;27.906;2023-04-09T11:23:27;9.17;;;6.30;;
6199;SDS011;3133;43.214;27.906;2023-04-09T11:25:57;6.07;;;5.20;;
6199;SDS011;3133;43.214;27.906;2023-04-09T11:28:25;7.30;;;6.10;;
6199;SDS011;3133;43.214;27.906;2023-04-09T11:30:54;9.37;;;6.07;;
6199;SDS011;3133;43.214;27.906;2023-04-09T11:33:21;11.13;;;6.77;;
6199;SDS011;3133;43.214;27.906;2023-04-09T11:35:48;7.33;;;6.10;;
6199;SDS011;3133;43.214;27.906;2023-04-09T11:38:16;8.17;;;6.80;;
6199;SDS011;3133;43.214;27.906;2023-04-09T11:40:43;8.73;;;6.47;;
6199;SDS011;3133;43.214;27.906;2023-04-09T11:43:13;8.00;;;5.93;;
6199;SDS011;3133;43.214;27.906;2023-04-09T11:45:41;8.00;;;6.90;;
6199;SDS011;3133;43.214;27.906;2023-04-09T11:48:10;8.57;;;6.60;;
6199;SDS011;3133;43.214;27.906;2023-04-09T11:50:37;14.87;;;7.50;;
6199;SDS011;3133;43.214;27.906;2023-04-09T11:55:48;8.93;;;7.03;;
6199;SDS011;3133;43.214;27.906;2023-04-09T11:58:16;8.87;;;6.13;;
6199;SDS011;3133;43.214;27.906;2023-04-09T12:00:43;20.70;;;8.07;;
6199;SDS011;3133;43.214;27.906;2023-04-09T12:03:12;8.63;;;6.87;;
6199;SDS011;3133;43.214;27.906;2023-04-09T12:05:43;8.63;;;6.13;;
6199;SDS011;3133;43.214;27.906;2023-04-09T12:08:12;7.17;;;6.07;;
6199;SDS011;3133;43.214;27.906;2023-04-09T12:10:42;14.23;;;5.93;;
6199;SDS011;3133;43.214;27.906;2023-04-09T12:13:09;8.63;;;5.57;;
6199;SDS011;3133;43.214;27.906;2023-04-09T12:15:41;9.13;;;6.90;;
6199;SDS011;3133;43.214;27.906;2023-04-09T12:18:09;12.17;;;5.73;;
6199;SDS011;3133;43.214;27.906;2023-04-09T12:20:41;10.23;;;6.57;;
6199;SDS011;3133;43.214;27.906;2023-04-09T12:23:10;11.30;;;6.57;;
6199;SDS011;3133;43.214;27.906;2023-04-09T12:25:39;10.03;;;6.10;;
6199;SDS011;3133;43.214;27.906;2023-04-09T12:28:11;19.20;;;6.80;;
6199;SDS011;3133;43.214;27.906;2023-04-09T12:30:42;9.53;;;6.53;;
6199;SDS011;3133;43.214;27.906;2023-04-09T12:33:09;7.27;;;6.23;;
6199;SDS011;3133;43.214;27.906;2023-04-09T12:35:36;13.83;;;6.07;;
6199;SDS011;3133;43.214;27.906;2023-04-09T12:38:07;16.50;;;6.00;;
6199;SDS011;3133;43.214;27.906;2023-04-09T12:40:34;7.63;;;6.20;;
6199;SDS011;3133;43.214;27.906;2023-04-09T12:43:01;9.97;;;6.80;;
6199;SDS011;3133;43.214;27.906;2023-04-09T12:45:28;9.77;;;6.43;;
6199;SDS011;3133;43.214;27.906;2023-04-09T12:47:56;14.03;;;6.57;;
6199;SDS011;3133;43.214;27.906;2023-04-09T12:50:23;8.83;;;6.67;;
6199;SDS011;3133;43.214;27.906;2023-04-09T12:52:51;12.60;;;5.30;;
6199;SDS011;3133;43.214;27.906;2023-04-09T12:55:19;5.47;;;4.90;;
6199;SDS011;3133;43.214;27.906;2023-04-09T12:57:48;8.87;;;5.80;;
6199;SDS011;3133;43.214;27.906;2023-04-09T13:00:17;11.00;;;5.67;;
6199;SDS011;3133;43.214;27.906;2023-04-09T13:02:44;5.53;;;5.00;;
6199;SDS011;3133;43.214;27.906;2023-04-09T13:05:11;9.57;;;5.93;;
6199;SDS011;3133;43.214;27.906;2023-04-09T13:07:38;6.57;;;5.53;;
6199;SDS011;3133;43.214;27.906;2023-04-09T13:10:05;6.47;;;5.53;;
6199;SDS011;3133;43.214;27.906;2023-04-09T13:12:34;6.30;;;5.70;;
6199;SDS011;3133;43.214;27.906;2023-04-09T13:15:01;7.33;;;6.23;;
6199;SDS011;3133;43.214;27.906;2023-04-09T13:17:28;6.90;;;5.70;;
6199;SDS011;3133;43.214;27.906;2023-04-09T13:19:55;6.83;;;5.83;;
6199;SDS011;3133;43.214;27.906;2023-04-09T13:22:22;7.50;;;5.40;;
6199;SDS011;3133;43.214;27.906;2023-04-09T13:24:48;6.87;;;5.93;;
6199;SDS011;3133;43.214;27.906;2023-04-09T13:27:16;15.80;;;5.70;;
6199;SDS011;3133;43.214;27.906;2023-04-09T13:29:45;8.37;;;5.90;;
6199;SDS011;3133;43.214;27.906;2023-04-09T13:32:12;12.03;;;6.13;;
6199;SDS011;3133;43.214;27.906;2023-04-09T13:34:38;6.87;;;6.17;;
6199;SDS011;3133;43.214;27.906;2023-04-09T13:37:06;9.00;;;6.03;;
6199;SDS011;3133;43.214;27.906;2023-04-09T13:39:33;8.53;;;6.53;;
6199;SDS011;3133;43.214;27.906;2023-04-09T13:42:00;6.10;;;5.50;;
6199;SDS011;3133;43.214;27.906;2023-04-09T13:44:28;11.87;;;5.77;;
6199;SDS011;3133;43.214;27.906;2023-04-09T13:46:58;8.00;;;6.27;;
6199;SDS011;3133;43.214;27.906;2023-04-09T13:49:25;7.23;;;6.30;;
6199;SDS011;3133;43.214;27.906;2023-04-09T13:51:52;11.83;;;6.37;;
6199;SDS011;3133;43.214;27.906;2023-04-09T13:54:20;6.50;;;5.83;;
6199;SDS011;3133;43.214;27.906;2023-04-09T13:56:48;6.87;;;5.93;;
6199;SDS011;3133;43.214;27.906;2023-04-09T13:59:16;10.53;;;6.70;;
6199;SDS011;3133;43.214;27.906;2023-04-09T14:01:43;7.87;;;5.63;;
6199;SDS011;3133;43.214;27.906;2023-04-09T14:04:11;8.07;;;6.43;;
6199;SDS011;3133;43.214;27.906;2023-04-09T14:06:38;7.33;;;5.30;;
6199;SDS011;3133;43.214;27.906;2023-04-09T14:09:06;7.57;;;5.77;;
6199;SDS011;3133;43.214;27.906;2023-04-09T14:11:33;5.97;;;5.37;;
6199;SDS011;3133;43.214;27.906;2023-04-09T14:14:00;10.20;;;7.07;;
6199;SDS011;3133;43.214;27.906;2023-04-09T14:16:27;9.10;;;7.10;;
6199;SDS011;3133;43.214;27.906;2023-04-09T14:18:54;8.97;;;6.27;;
6199;SDS011;3133;43.214;27.906;2023-04-09T14:21:23;7.27;;;5.80;;
6199;SDS011;3133;43.214;27.906;2023-04-09T14:23:51;11.47;;;6.47;;
6199;SDS011;3133;43.214;27.906;2023-04-09T14:26:19;7.87;;;5.77;;
6199;SDS011;3133;43.214;27.906;2023-04-09T14:28:47;9.77;;;6.60;;
6199;SDS011;3133;43.214;27.906;2023-04-09T14:31:14;6.30;;;5.20;;
6199;SDS011;3133;43.214;27.906;2023-04-09T14:33:44;10.27;;;5.47;;
6199;SDS011;3133;43.214;27.906;2023-04-09T14:36:11;5.90;;;5.30;;
6199;SDS011;3133;43.214;27.906;2023-04-09T14:38:39;7.53;;;5.80;;
6199;SDS011;3133;43.214;27.906;2023-04-09T14:41:06;10.30;;;5.80;;
6199;SDS011;3133;43.214;27.906;2023-04-09T14:43:33;7.70;;;5.93;;
6199;SDS011;3133;43.214;27.906;2023-04-09T14:45:59;8.60;;;6.13;;
6199;SDS011;3133;43.214;27.906;2023-04-09T14:48:28;15.23;;;6.77;;
6199;SDS011;3133;43.214;27.906;2023-04-09T14:50:54;10.67;;;6.70;;
6199;SDS011;3133;43.214;27.906;2023-04-09T14:53:22;8.87;;;6.83;;
6199;SDS011;3133;43.214;27.906;2023-04-09T14:55:51;8.90;;;7.03;;
6199;SDS011;3133;43.214;27.906;2023-04-09T14:58:18;7.17;;;6.43;;
6199;SDS011;3133;43.214;27.906;2023-04-09T15:00:45;18.17;;;6.37;;
6199;SDS011;3133;43.214;27.906;2023-04-09T15:03:12;13.73;;;6.33;;
6199;SDS011;3133;43.214;27.906;2023-04-09T15:05:39;7.63;;;5.30;;
6199;SDS011;3133;43.214;27.906;2023-04-09T15:08:06;8.90;;;6.00;;
6199;SDS011;3133;43.214;27.906;2023-04-09T15:10:34;10.90;;;5.60;;
6199;SDS011;3133;43.214;27.906;2023-04-09T15:13:03;10.10;;;6.20;;
6199;SDS011;3133;43.214;27.906;2023-04-09T15:15:30;6.30;;;5.40;;
6199;SDS011;3133;43.214;27.906;2023-04-09T15:17:57;7.53;;;5.33;;
6199;SDS011;3133;43.214;27.906;2023-04-09T15:20:29;7.27;;;5.67;;
6199;SDS011;3133;43.214;27.906;2023-04-09T15:22:56;5.87;;;5.23;;
6199;SDS011;3133;43.214;27.906;2023-04-09T15:25:23;5.87;;;4.97;;
6199;SDS011;3133;43.214;27.906;2023-04-09T15:27:50;8.17;;;5.70;;
6199;SDS011;3133;43.214;27.906;2023-04-09T15:30:18;8.07;;;5.47;;
6199;SDS011;3133;43.214;27.906;2023-04-09T15:32:45;6.87;;;5.97;;
6199;SDS011;3133;43.214;27.906;2023-04-09T15:35:11;8.77;;;5.73;;
6199;SDS011;3133;43.214;27.906;2023-04-09T15:37:43;8.00;;;6.17;;
6199;SDS011;3133;43.214;27.906;2023-04-09T15:40:10;9.23;;;6.57;;
6199;SDS011;3133;43.214;27.906;2023-04-09T15:42:37;10.73;;;5.97;;
6199;SDS011;3133;43.214;27.906;2023-04-09T15:45:05;10.67;;;6.03;;
6199;SDS011;3133;43.214;27.906;2023-04-09T15:47:34;8.63;;;6.20;;
6199;SDS011;3133;43.214;27.906;2023-04-09T15:50:00;6.70;;;6.00;;
6199;SDS011;3133;43.214;27.906;2023-04-09T15:52:27;15.43;;;7.13;;
6199;SDS011;3133;43.214;27.906;2023-04-09T15:54:54;8.10;;;5.60;;
6199;SDS011;3133;43.214;27.906;2023-04-09T15:57:22;8.57;;;7.03;;
6199;SDS011;3133;43.214;27.906;2023-04-09T15:59:49;11.97;;;7.40;;
6199;SDS011;3133;43.214;27.906;2023-04-09T16:02:18;10.17;;;6.80;;
6199;SDS011;3133;43.214;27.906;2023-04-09T16:04:46;8.33;;;6.97;;
6199;SDS011;3133;43.214;27.906;2023-04-09T16:07:13;7.93;;;6.20;;
6199;SDS011;3133;43.214;27.906;2023-04-09T16:09:41;13.27;;;6.87;;
6199;SDS011;3133;43.214;27.906;2023-04-09T16:12:10;11.00;;;7.00;;
6199;SDS011;3133;43.214;27.906;2023-04-09T16:14:37;10.00;;;7.03;;
6199;SDS011;3133;43.214;27.906;2023-04-09T16:17:04;12.93;;;6.80;;
6199;SDS011;3133;43.214;27.906;2023-04-09T16:19:31;25.73;;;6.93;;
6199;SDS011;3133;43.214;27.906;2023-04-09T16:22:00;15.40;;;8.27;;
6199;SDS011;3133;43.214;27.906;2023-04-09T16:24:27;13.73;;;8.37;;
6199;SDS011;3133;43.214;27.906;2023-04-09T16:26:55;10.63;;;7.93;;
6199;SDS011;3133;43.214;27.906;2023-04-09T16:29:22;10.03;;;8.17;;
6199;SDS011;3133;43.214;27.906;2023-04-09T16:31:49;10.57;;;8.10;;
6199;SDS011;3133;43.214;27.906;2023-04-09T16:34:16;9.77;;;7.80;;
6199;SDS011;3133;43.214;27.906;2023-04-09T16:36:43;10.77;;;8.23;;
6199;SDS011;3133;43.214;27.906;2023-04-09T16:39:12;10.87;;;8.37;;
6199;SDS011;3133;43.214;27.906;2023-04-09T16:41:39;14.63;;;8.40;;
6199;SDS011;3133;43.214;27.906;2023-04-09T16:44:06;12.17;;;8.20;;
6199;SDS011;3133;43.214;27.906;2023-04-09T16:46:37;10.13;;;8.10;;
6199;SDS011;3133;43.214;27.906;2023-04-09T16:49:04;11.77;;;8.80;;
6199;SDS011;3133;43.214;27.906;2023-04-09T16:51:31;10.63;;;8.57;;
6199;SDS011;3133;43.214;27.906;2023-04-09T16:53:58;15.80;;;8.63;;
6199;SDS011;3133;43.214;27.906;2023-04-09T16:56:26;12.00;;;8.73;;
6199;SDS011;3133;43.214;27.906;2023-04-09T16:58:53;14.27;;;10.00;;
6199;SDS011;3133;43.214;27.906;2023-04-09T17:01:20;16.37;;;9.40;;
6199;SDS011;3133;43.214;27.906;2023-04-09T17:03:47;19.90;;;10.07;;
6199;SDS011;3133;43.214;27.906;2023-04-09T17:06:14;12.50;;;10.00;;
6199;SDS011;3133;43.214;27.906;2023-04-09T17:08:41;14.57;;;10.80;;
6199;SDS011;3133;43.214;27.906;2023-04-09T17:11:08;15.03;;;9.83;;
6199;SDS011;3133;43.214;27.906;2023-04-09T17:13:42;14.70;;;10.07;;
6199;SDS011;3133;43.214;27.906;2023-04-09T17:16:09;19.70;;;10.00;;
6199;SDS011;3133;43.214;27.906;2023-04-09T17:18:36;30.43;;;11.13;;
6199;SDS011;3133;43.214;27.906;2023-04-09T17:21:04;15.90;;;9.33;;
6199;SDS011;3133;43.214;27.906;2023-04-09T17:23:34;13.07;;;10.13;;
6199;SDS011;3133;43.214;27.906;2023-04-09T17:26:02;12.50;;;9.90;;
6199;SDS011;3133;43.214;27.906;2023-04-09T17:28:28;14.03;;;10.37;;
6199;SDS011;3133;43.214;27.906;2023-04-09T17:30:57;15.67;;;10.47;;
6199;SDS011;3133;43.214;27.906;2023-04-09T17:33:24;17.73;;;10.33;;
6199;SDS011;3133;43.214;27.906;2023-04-09T17:35:51;14.00;;;10.37;;
6199;SDS011;3133;43.214;27.906;2023-04-09T17:38:18;22.07;;;11.33;;
6199;SDS011;3133;43.214;27.906;2023-04-09T17:40:48;11.43;;;9.43;;
6199;SDS011;3133;43.214;27.906;2023-04-09T17:43:17;14.30;;;9.27;;
6199;SDS011;3133;43.214;27.906;2023-04-09T17:45:44;13.43;;;9.60;;
6199;SDS011;3133;43.214;27.906;2023-04-09T17:48:13;14.80;;;9.83;;
6199;SDS011;3133;43.214;27.906;2023-04-09T17:50:43;14.90;;;9.27;;
6199;SDS011;3133;43.214;27.906;2023-04-09T17:53:09;15.20;;;9.57;;
6199;SDS011;3133;43.214;27.906;2023-04-09T17:55:37;12.63;;;8.97;;
6199;SDS011;3133;43.214;27.906;2023-04-09T17:58:05;13.33;;;9.47;;
6199;SDS011;3133;43.214;27.906;2023-04-09T18:00:32;11.77;;;9.07;;
6199;SDS011;3133;43.214;27.906;2023-04-09T18:02:59;11.70;;;8.70;;
6199;SDS011;3133;43.214;27.906;2023-04-09T18:05:27;13.53;;;9.60;;
6199;SDS011;3133;43.214;27.906;2023-04-09T18:07:55;19.60;;;9.90;;
6199;SDS011;3133;43.214;27.906;2023-04-09T18:10:23;15.10;;;9.17;;
6199;SDS011;3133;43.214;27.906;2023-04-09T18:12:51;18.03;;;10.80;;
6199;SDS011;3133;43.214;27.906;2023-04-09T18:15:17;23.13;;;11.00;;
6199;SDS011;3133;43.214;27.906;2023-04-09T18:17:45;63.40;;;17.17;;
6199;SDS011;3133;43.214;27.906;2023-04-09T18:20:12;40.63;;;13.03;;
6199;SDS011;3133;43.214;27.906;2023-04-09T18:22:41;22.33;;;11.20;;
6199;SDS011;3133;43.214;27.906;2023-04-09T18:25:10;23.57;;;11.97;;
6199;SDS011;3133;43.214;27.906;2023-04-09T18:27:37;19.60;;;11.17;;
6199;SDS011;3133;43.214;27.906;2023-04-09T18:30:06;12.60;;;10.53;;
6199;SDS011;3133;43.214;27.906;2023-04-09T18:32:34;23.63;;;16.50;;
6199;SDS011;3133;43.214;27.906;2023-04-09T18:35:01;21.40;;;14.23;;
6199;SDS011;3133;43.214;27.906;2023-04-09T18:37:28;32.43;;;15.93;;
6199;SDS011;3133;43.214;27.906;2023-04-09T18:39:59;22.77;;;12.43;;
6199;SDS011;3133;43.214;27.906;2023-04-09T18:42:26;16.23;;;9.90;;
6199;SDS011;3133;43.214;27.906;2023-04-09T18:44:53;15.30;;;11.27;;
6199;SDS011;3133;43.214;27.906;2023-04-09T18:47:20;19.93;;;11.90;;
6199;SDS011;3133;43.214;27.906;2023-04-09T18:49:48;15.43;;;10.77;;
6199;SDS011;3133;43.214;27.906;2023-04-09T18:52:15;16.07;;;10.87;;
6199;SDS011;3133;43.214;27.906;2023-04-09T18:54:42;19.90;;;11.43;;
6199;SDS011;3133;43.214;27.906;2023-04-09T18:57:10;16.87;;;10.90;;
6199;SDS011;3133;43.214;27.906;2023-04-09T18:59:37;14.30;;;10.67;;
6199;SDS011;3133;43.214;27.906;2023-04-09T19:02:05;12.00;;;10.07;;
6199;SDS011;3133;43.214;27.906;2023-04-09T19:04:32;19.37;;;11.23;;
6199;SDS011;3133;43.214;27.906;2023-04-09T19:07:03;18.03;;;11.77;;
6199;SDS011;3133;43.214;27.906;2023-04-09T19:09:30;15.03;;;11.00;;
6199;SDS011;3133;43.214;27.906;2023-04-09T19:11:57;20.50;;;11.13;;
6199;SDS011;3133;43.214;27.906;2023-04-09T19:14:27;22.80;;;12.30;;
6199;SDS011;3133;43.214;27.906;2023-04-09T19:16:53;20.47;;;13.20;;
6199;SDS011;3133;43.214;27.906;2023-04-09T19:19:22;27.90;;;14.20;;
6199;SDS011;3133;43.214;27.906;2023-04-09T19:21:49;18.27;;;12.67;;
6199;SDS011;3133;43.214;27.906;2023-04-09T19:24:16;19.57;;;13.23;;
6199;SDS011;3133;43.214;27.906;2023-04-09T19:26:43;20.57;;;13.40;;
6199;SDS011;3133;43.214;27.906;2023-04-09T19:29:10;15.97;;;11.33;;
6199;SDS011;3133;43.214;27.906;2023-04-09T19:31:38;15.00;;;10.87;;
6199;SDS011;3133;43.214;27.906;2023-04-09T19:34:06;18.87;;;10.47;;
6199;SDS011;3133;43.214;27.906;2023-04-09T19:36:34;16.33;;;10.33;;
6199;SDS011;3133;43.214;27.906;2023-04-09T19:39:01;15.50;;;11.03;;
6199;SDS011;3133;43.214;27.906;2023-04-09T19:41:29;13.10;;;9.90;;
6199;SDS011;3133;43.214;27.906;2023-04-09T19:43:56;13.57;;;9.93;;
6199;SDS011;3133;43.214;27.906;2023-04-09T19:46:25;27.47;;;11.33;;
6199;SDS011;3133;43.214;27.906;2023-04-09T19:48:53;34.20;;;12.90;;
6199;SDS011;3133;43.214;27.906;2023-04-09T19:51:20;17.60;;;11.23;;
6199;SDS011;3133;43.214;27.906;2023-04-09T19:53:47;17.53;;;13.17;;
6199;SDS011;3133;43.214;27.906;2023-04-09T19:56:14;12.93;;;10.20;;
6199;SDS011;3133;43.214;27.906;2023-04-09T19:58:41;22.13;;;11.27;;
6199;SDS011;3133;43.214;27.906;2023-04-09T20:01:09;18.63;;;12.40;;
6199;SDS011;3133;43.214;27.906;2023-04-09T20:03:36;17.80;;;12.87;;
6199;SDS011;3133;43.214;27.906;2023-04-09T20:06:06;22.37;;;12.93;;
6199;SDS011;3133;43.214;27.906;2023-04-09T20:08:34;35.00;;;17.53;;
6199;SDS011;3133;43.214;27.906;2023-04-09T20:11:02;33.70;;;20.67;;
6199;SDS011;3133;43.214;27.906;2023-04-09T20:13:29;34.67;;;20.67;;
6199;SDS011;3133;43.214;27.906;2023-04-09T20:15:56;35.07;;;23.27;;
6199;SDS011;3133;43.214;27.906;2023-04-09T20:18:23;38.63;;;26.37;;